Atlantic - Newfoundland: Past 24 Hour Conditions

 

Cartwright Airport

12:00 PM AST 27 January 2015
Disclaimer

This table is a summary of hourly weather conditions for the past 24 hours.
Please note that these observations might not always be representative of weather conditions over their associated marine area.

Date / Time
(AST)
Wind(knots) Conditions Visibility(km) Pressure(kPa) Air tempC) Relative humidity(%) Dew pointC) Wind Chill
27 January 2015
12:00 SW 8 Mainly Sunny 24 103.5 -23 51 -30 -32
11:00 SW 11 Sunny 24 103.4 -24 52 -31 -35
10:00 SW 11 Sunny 24 103.4 -25 53 -31 -36
9:00 SW 8 Sunny 24 103.3 -25 49 -33 -35
8:00 W 6 Sunny 24 103.1 -25 53 -32 -34
7:00 WSW 12 gust 17 Clear 24 103.0 -25 58 -31 -38
6:00 SW 9 Clear 24 102.8 -25 59 -31 -36
5:00 SW 8 Clear 24 102.7 -24 51 -32 -34
4:00 SW 8 Clear 40 102.6 -24 54 -31 -34
3:00 WSW 10 Clear 24 102.4 -23 61 -29 -34
2:00 WSW 9 Clear 24 102.2 -23 59 -28 -33
1:00 WSW 13 gust 20 Drifting Snow 24 102.0 -22 60 -28 -34
0:00 WSW 13 gust 21 Light Snow 5 101.8 -21 65 -26 -33
26 January 2015
23:00 WSW 16 gust 24 Light Snow 4 101.6 -21 66 -25 -34
22:00 WSW 16 gust 24 Light Snow 5 101.3 -20 68 -25 -33
21:00 SW 14 Light Snow 5 101.1 -21 73 -25 -33
20:00 SW 18 gust 23 Light Snow 6 101.0 -21 67 -26 -35
19:00 SW 16 gust 23 Light Snow 13 100.8 -21 63 -26 -34
18:00 WSW 18 Drifting Snow 24 100.6 -21 64 -26 -35
17:00 WSW 16 gust 22 Drifting Snow 24 100.5 -21 61 -26 -33
16:00 WSW 17 gust 23 Drifting Snow 24 100.2 -20 58 -26 -32
15:00 WSW 17 Drifting Snow 24 100.0 -19 58 -25 -31
14:00 WSW 13 gust 18 Drifting Snow 24 99.8 -17 60 -23 -28
13:00 W 12 gust 19 Drifting Snow 24 99.7 -17 58 -23 -27
12:00 WSW 19 gust 25 Drifting Snow 24 99.5 -17 56 -24 -29
Map of Atlantic - Newfoundland marine weather areas Southwestern Grand Banks - 44138 Banquereau - 44139 Tail of the Bank - 44140 Nickerson Bank - 44251 Northeast Burgeo Bank - 44255 Blanc-Sablon Airport Cap Whittle Chevery Natashquan Airport Heath Point Miscou Island Grand Étang Ingonish Beach North Mountain St.Paul Island J.A. Douglas McCurdy Sydney Airport Charlottetown Airport East Point North Cape Argentia Bonavista Burgeo Cape Race Corner Brook Daniel's Harbour Englee Ferolle Point La Scie Port aux Basques Rocky Harbour Sagona Island St. Anthony Airport St. John's Int'l Airport St. Lawrence Stephenville Airport Twillingate Winterland Wreckhouse Cartwright Airport Mary's Harbour Grates Cove Pool's Island Marticot Island Long Pond Îles de la Madeleine Airport
Legend:
buoy Buoy
land station Land Station

Atlantic - Newfoundland Area

Another Region

What we are doing

Date modified: